Wanborough, United Kingdom
Current Conditions -  °F | °C
As of 9:15 PM on Sunday 23 Nov 2014 (Local Time) from EGVA Reporting Station
Haze Haze  
Wind Chill: 36°   Ceiling: Unl
Heat Index: 36°   Visibility: 0.75mi
Dew Point: 36°   Wind: 3mph
Humidity: 100%   Direction: 250°WSW
Pressure: 30.15"   Gusts: NA
Location:  51.54°N, 1.7°W
Report Text: EGVA 232115Z AUTO 25003KT 1200 R27/0600 BR CLR 02/02 A3015 RMK AO2 $
Loading
Personal Weather Stations






























Interactive Weather Map New forecast layout! Learn more

10-Day Weather Forecast

Advertisements
Track Severe Weather on mobile